Tiempo atmosférico en la estación meteorológica de Ossa De Montiel, Albacete (905 m.)



Fecha
DESCASC
Temp. máxima en grados centígrados (hora)
DESCASC
Temp. mínima en grados centígrados (hora)
DESCASC
Temp. media en grados centígrados
DESCASC
Racha de viento máxima en m/sg (hora)
DESCASC
Velocidad máxima media en intervalos de 10 minutos(hora)
DESCASC
Precipitaciones diarias en mm
DESCASC
Precipitaciones de 00:00 a 06:00 en mm
DESCASC
Precipitaciones de 06:00 a 12:00 en mm
DESCASC
Precipitaciones de 12:00 a 18:00 en mm
DESCASC
Precipitaciones de 18:00 a 24:00 en mm
DESCASC
02-04-2020 -- (--) -- (--) -- -- (--) -- (--) -- 0 0 0 --
01-04-2020 14.5 (16:30) 4.4 (08:10) 9.5 9.17 (11:00) 5.28 (11:20) 0.4 0.4 0 0 0
31-03-2020 13.8 (14:50) 4.6 (00:00) 9.2 7.78 (09:50) 4.17 (13:20) 15.6 5.8 3.6 1.4 4.8
30-03-2020 11.7 (16:30) 4.8 (00:00) 8.3 6.39 (20:40) 3.33 (20:30) 9.8 0 0 1 8.8
29-03-2020 17.2 (15:10) -0.1 (00:00) 8.6 6.67 (18:30) 2.5 (18:30) 0 0 0 0 0
28-03-2020 10.9 (16:20) 0.6 (00:00) 5.7 7.5 (00:30) 4.17 (13:40) 0 0 0 0 0
27-03-2020 6.5 (00:00) 0.5 (00:00) 3.5 11.67 (11:30) 6.11 (13:10) 23.6 0 9.8 12.4 1.4
26-03-2020 14.4 (14:40) 2.7 (00:00) 8.5 10 (15:20) 5 (15:20) 0 0 0 0 0
25-03-2020 14.1 (15:40) 1 (00:00) 7.6 6.67 (01:00) 3.61 (01:00) 3 0 0 0 3
24-03-2020 10.5 (13:40) 4.8 (00:00) 7.7 16.11 (05:10) 8.61 (13:30) 0 0 0 0 0
23-03-2020 14.2 (14:20) 4.5 (00:00) 9.3 11.67 (18:30) 5.83 (14:50) 0.2 0 0 0 0.2
22-03-2020 11.8 (15:10) 3 (01:40) 7.4 7.5 (13:40) 3.89 (14:20) 1.2 0.2 0 0.2 0.8
21-03-2020 8.6 (14:10) 3 (00:00) 5.8 7.78 (10:30) 4.44 (09:50) 0.4 0 0 0.4 0
20-03-2020 15.4 (14:30) 6.1 (00:00) 10.7 10.56 (10:50) 5.83 (19:40) 0 0 0 0 0
19-03-2020 15 (13:50) 5.7 (00:00) 10.3 11.11 (12:20) 6.94 (00:20) 0 0 0 0 0
18-03-2020 12.9 (16:50) 6.9 (00:00) 9.9 16.11 (04:10) 9.17 (03:50) 0 0 0 0 0
17-03-2020 14 (14:10) 0.6 (00:00) 7.3 12.5 (12:30) 6.39 (16:40) 0 0 0 0 0
16-03-2020 10.7 (03:30) 0.8 (00:00) 5.7 10.56 (06:40) 5.83 (12:40) 7 4.6 2 0.4 0
15-03-2020 20.6 (15:10) 7.4 (00:00) 14 9.17 (17:40) 5.56 (17:50) 0 0 0 0 0
14-03-2020 20.9 (14:30) 6.6 (00:00) 13.7 5.83 (11:50) 2.5 (18:20) 0 0 0 0 0
13-03-2020 25 (14:40) 9.3 (07:20) 17.2 5 (13:10) 3.06 (15:40) 0 0 0 0 0
12-03-2020 28.2 (14:30) 7.6 (00:00) 17.9 6.67 (13:30) 3.33 (16:50) 0 0 0 0 0
11-03-2020 27.5 (15:20) 4.8 (00:00) 16.2 4.72 (16:10) 1.94 (15:50) 0 0 0 0 0
10-03-2020 20.9 (15:30) 3 (00:00) 11.9 6.39 (13:50) 3.06 (03:40) 0 0 0 0 0
09-03-2020 16.1 (14:40) 0.2 (00:00) 8.2 8.61 (16:20) 3.61 (12:10) 0 0 0 0 0
08-03-2020 17.9 (15:00) -1.8 (-00:0) 8 8.89 (15:40) 3.61 (13:30) 0 0 0 0 0
07-03-2020 12.7 (16:00) -0.9 (-00:0) 5.9 9.17 (15:20) 5 (17:30) 0 0 0 0 0
06-03-2020 10.6 (13:50) 2.9 (00:00) 6.8 12.78 (16:00) 6.11 (14:50) 0 0 0 0 0
05-03-2020 13.3 (11:30) 7.1 (00:00) 10.2 14.72 (11:10) 8.33 (11:30) 0 0 0 0 0

Gráficas

Temp. máximas Temp. mínimas Temp. medias Precipitaciones Rachas de viento máximas Velocidades máximas media en intervalos de 10 minutos

Datos horarios

Fecha y hora oficial Temperatura (ºC) Velocidad del viento (km/h) Dirección del viento Racha (km/h) Dirección de racha Precipitación (mm) Presión (hPa) Tendencia (hPa) Humedad (%)
2020-04-03 23:00:00 9.3 2 Sudeste 7 Nordeste 0 -- -- 74
2020-04-03 22:00:00 10.2 5 Este 10 Nordeste 0 -- -- 71
2020-04-03 21:00:00 11.8 4 Nordeste 12 Este 0 -- -- 65
2020-04-03 20:00:00 13.8 7 Nordeste 15 Este 0 -- -- 56
2020-04-03 19:00:00 15.3 7 Este 14 Este 0 -- -- 52
2020-04-03 18:00:00 15.2 8 Nordeste 18 Nordeste 0 -- -- 50
2020-04-03 17:00:00 15.8 3 Este 14 Nordeste 0 -- -- 47
2020-04-03 16:00:00 16.6 5 Sur 13 Norte 0 -- -- 42
2020-04-03 15:00:00 15 10 Nordeste 29 Oeste 0 -- -- 48
2020-04-03 14:00:00 14.2 5 Sudeste 10 Este 0 -- -- 51
2020-04-03 13:00:00 14.5 3 Sudoeste 9 Este 0 -- -- 48
2020-04-03 12:00:00 11.7 4 Sur 10 Oeste 0 -- -- 64
2020-04-03 11:00:00 8 4 Sudoeste 9 Sudoeste -- -- -- 93
2020-04-03 10:00:00 4.8 4 Sudoeste 9 Sudoeste 0 -- -- 99
2020-04-03 09:00:00 4.1 3 Sur 8 Sudoeste 0 -- -- 99
2020-04-03 08:00:00 3.8 4 Sur 6 Sur 0 -- -- 98
2020-04-03 07:00:00 3.2 2 Sur 6 Sur 0 -- -- 97
2020-04-03 06:00:00 3.3 2 Sur 5 Sur 0 -- -- 96
2020-04-03 05:00:00 3.8 0 Calma 2 Sudeste 0 -- -- 95
2020-04-03 04:00:00 4.3 0 Calma 4 Sur 0 -- -- 94
2020-04-03 03:00:00 5.4 0 Calma 3 Sudoeste 0 -- -- 92
2020-04-03 02:00:00 6.3 0 Calma 4 Sudeste 0 -- -- 89
2020-04-03 01:00:00 7 0 Calma 8 Sudeste 0 -- -- 87
2020-04-03 00:00:00 7.2 5 Este 12 Este 0 -- -- 84
2020-04-02 23:00:00 7.8 4 Norte 21 Nordeste 0 -- -- 79
2020-04-02 22:00:00 7.6 12 Nordeste 27 Nordeste 0 -- -- 78
2020-04-02 21:00:00 9.7 5 Nordeste 15 Norte 0 -- -- 69
2020-04-02 20:00:00 10.2 8 Este 27 Este 0 -- -- 66
2020-04-02 19:00:00 12.5 12 Nordeste 29 Este 0 -- -- 58
2020-04-02 18:00:00 13 12 Nordeste 26 Nordeste 0 -- -- 48
2020-04-02 17:00:00 13.3 8 Nordeste 18 Sur 0 -- -- 48
2020-04-02 16:00:00 13.4 6 Sur 25 Este 0 -- -- 54
2020-04-02 15:00:00 12.2 11 Este 21 Nordeste 0 -- -- 55
2020-04-02 14:00:00 13 8 Este 18 Este 0 -- -- 50
2020-04-02 13:00:00 12.4 9 Este 23 Nordeste 0 -- -- 58
2020-04-02 12:00:00 12.4 6 Este 19 Este 0 -- -- 57
2020-04-02 11:00:00 11.6 0 Calma 6 Nordeste 0 -- -- 59
2020-04-02 10:00:00 7 0 Calma 4 Sudeste 0 -- -- 86
2020-04-02 09:00:00 5.3 0 Calma 5 Sudeste 0 -- -- 91
2020-04-02 08:00:00 1.9 3 Sudeste 6 Sudoeste 0 -- -- 96
2020-04-02 07:00:00 2.4 2 Sur 8 Sur 0 -- -- 96
2020-04-02 06:00:00 2.7 0 Calma 4 Oeste 0 -- -- 94
2020-04-02 05:00:00 3.5 0 Calma 5 Sudoeste 0 -- -- 93
2020-04-02 04:00:00 4 3 Sudoeste 5 Sudoeste 0 -- -- 92
2020-04-02 03:00:00 4.3 2 Sur 8 Sudoeste 0 -- -- 89
2020-04-02 02:00:00 5 3 Sudoeste 8 Sudoeste 0 -- -- 88
2020-04-02 01:00:00 5.6 0 Calma 6 Oeste 0 -- -- 87
2020-04-02 00:00:00 6.1 2 Sudoeste 8 Oeste 0 -- -- 84
2020-04-01 23:00:00 7.1 4 Oeste 9 Oeste 0 -- -- 79
2020-04-01 22:00:00 7.9 2 Noroeste 9 Noroeste 0 -- -- 75
2020-04-01 21:00:00 9.1 6 Noroeste 18 Norte 0 -- -- 71
2020-04-01 20:00:00 10.9 6 Noroeste 28 Noroeste 0 -- -- 64
2020-04-01 19:00:00 13.4 13 Oeste 27 Noroeste 0 -- -- 47
2020-04-01 18:00:00 12.9 13 Noroeste 27 Noroeste 0 -- -- 53
2020-04-01 17:00:00 13.9 13 Oeste 31 Oeste 0 -- -- 52
2020-04-01 16:00:00 13.9 12 Oeste 27 Oeste 0 -- -- 55
2020-04-01 15:00:00 12.6 11 Oeste 26 Oeste 0 -- -- 59
2020-04-01 14:00:00 13.2 12 Noroeste 25 Noroeste 0 -- -- 57
2020-04-01 13:00:00 12.2 12 Oeste 28 Oeste 0 -- -- 64
2020-04-01 12:00:00 12.1 12 Oeste 31 Oeste 0 -- -- 68
2020-04-01 11:00:00 10.2 16 Oeste 33 Oeste 0 -- -- 76
2020-04-01 10:00:00 8.7 15 Oeste 26 Sudoeste 0 -- -- 90
2020-04-01 09:00:00 6.8 3 Sudoeste 5 Oeste 0 -- -- 95
2020-04-01 08:00:00 4.6 0 Calma 4 Oeste 0 -- -- 98
2020-04-01 07:00:00 5.4 0 Calma 5 Sudoeste 0 -- -- 98
2020-04-01 06:00:00 6.2 0 Calma 5 Este 0 -- -- 98
2020-04-01 05:00:00 6.3 2 Sudeste 7 Sur 0 -- -- 97
2020-04-01 04:00:00 7.1 2 Sudoeste 12 Sudoeste 0 -- -- 96
2020-04-01 03:00:00 7.5 6 Sudoeste 14 Sudoeste 0.4 -- -- 96
2020-04-01 02:00:00 7.3 3 Sudoeste 8 Sur 0 -- -- 95
2020-04-01 01:00:00 7.3 3 Sur 10 Sur 0 -- -- 95
2020-04-01 00:00:00 7.5 2 Sur 13 Oeste 0.4 -- -- 94
2020-03-31 23:00:00 7.9 4 Oeste 18 Sur 0.6 -- -- 94
2020-03-31 22:00:00 8.8 6 Sur 17 Sudoeste 1 -- -- 93
2020-03-31 21:00:00 8.6 3 Sur 10 Sudeste 0 -- -- 92
2020-03-31 20:00:00 8.7 4 Sudeste 10 Sur 0 -- -- 91
2020-03-31 19:00:00 8.6 3 Sur 19 Sudoeste 2.8 -- -- 92
2020-03-31 18:00:00 9.9 7 Sudoeste 20 Oeste 1.4 -- -- 85
2020-03-31 17:00:00 12.3 12 Sur 24 Sur 0 -- -- 72
2020-03-31 16:00:00 13.1 11 Sudoeste 22 Sur 0 -- -- 65
2020-03-31 15:00:00 13.1 12 Sudoeste 28 Oeste 0 -- -- 65
2020-03-31 14:00:00 11.6 12 Oeste 27 Sudoeste 0 -- -- 73
2020-03-31 13:00:00 11 7 Sudoeste 27 Sur 0 -- -- 74
2020-03-31 12:00:00 11.4 11 Sudoeste 22 Sur 0 -- -- 75
2020-03-31 11:00:00 9.1 13 Sur 25 Sur 0 -- -- 84
2020-03-31 10:00:00 7.3 9 Sur 28 Sudeste 0 -- -- 93
2020-03-31 09:00:00 5.2 9 Sudeste 26 Sudeste 0 -- -- 96
2020-03-31 08:00:00 4.8 11 Sudeste 22 Sudeste 0.6 -- -- 96
2020-03-31 07:00:00 4.8 6 Sur 22 Sudeste 3 -- -- 96
2020-03-31 06:00:00 4.9 6 Sudeste 25 Sur 2 -- -- 96
2020-03-31 05:00:00 5.4 9 Sudeste 24 Sudeste 1.4 -- -- 95
2020-03-31 04:00:00 5.9 8 Sur 23 Sudeste 0.8 -- -- 95
2020-03-31 03:00:00 6 6 Sur 19 Sur 1 -- -- 96
2020-03-31 02:00:00 6.3 7 Sur 16 Sudeste 0.2 -- -- 96
2020-03-31 01:00:00 6.4 4 Sur 15 Sur 0.4 -- -- 96
2020-03-31 00:00:00 6.1 5 Sur 15 Sudeste 2.2 -- -- 96
2020-03-30 23:00:00 6.6 3 Noroeste 13 Sudeste 3.4 -- -- 95
2020-03-30 22:00:00 7.2 5 Sudeste 18 Sudeste 2.8 -- -- 94
2020-03-30 21:00:00 7.7 6 Sudoeste 23 Sur 0.4 -- -- 90
2020-03-30 20:00:00 8.2 6 Este 14 Nordeste 0 -- -- 87
2020-03-30 19:00:00 9.6 8 Nordeste 14 Nordeste 0 -- -- 75
2020-03-30 18:00:00 10.7 4 Norte 19 Noroeste 0 -- -- 68
2020-03-30 17:00:00 11.4 7 Norte 18 Noroeste 0 -- -- 64
2020-03-30 16:00:00 10.7 10 Oeste 18 Noroeste 0.2 -- -- 79
2020-03-30 15:00:00 10.6 2 Noroeste 14 Norte 0 -- -- 82
2020-03-30 14:00:00 8.6 4 Oeste 13 Norte 0.8 -- -- 89
2020-03-30 13:00:00 9.2 3 Norte 12 Noroeste 0 -- -- 87
2020-03-30 12:00:00 9.1 8 Oeste 17 Oeste 0 -- -- 84
2020-03-30 11:00:00 9.3 8 Sudoeste 14 Oeste 0 -- -- 80
2020-03-30 10:00:00 8.5 3 Sudoeste 12 Sudoeste 0 -- -- 85
2020-03-30 09:00:00 6.3 0 Calma 4 Sudeste 0 -- -- 89
2020-03-30 08:00:00 5.8 0 Calma 3 Este 0 -- -- 89
2020-03-30 07:00:00 5.8 0 Calma 5 Sur -- -- -- 88
2020-03-30 06:00:00 5.3 0 Calma 4 Este 0 -- -- 89
2020-03-30 05:00:00 4.8 0 Calma 5 Sudeste 0 -- -- 88
2020-03-30 04:00:00 5.1 0 Calma 4 Sudeste 0 -- -- 87
2020-03-30 03:00:00 5.8 0 Calma 3 Sudeste 0 -- -- 85
2020-03-30 02:00:00 6 0 Calma 7 Oeste 0 -- -- 84
2020-03-30 01:00:00 7.7 3 Oeste 8 Oeste 0 -- -- 73
2020-03-30 00:00:00 7.5 0 Calma 5 Sudoeste 0 -- -- 75
2020-03-29 23:00:00 8.8 3 Sudoeste 10 Sudoeste 0 -- -- 67
2020-03-29 22:00:00 10.1 0 Calma 5 Norte 0 -- -- 57
2020-03-29 21:00:00 11.3 3 Norte 5 Norte 0 -- -- 56
2020-03-29 20:00:00 13.9 3 Noroeste 16 Oeste 0 -- -- 46
2020-03-29 19:00:00 15.5 6 Noroeste 24 Norte 0 -- -- 40
2020-03-29 18:00:00 15.2 4 Norte 14 Norte 0 -- -- 41
2020-03-29 17:00:00 16 6 Oeste 15 Norte 0 -- -- 40
2020-03-29 16:00:00 16.9 4 Noroeste 14 Noroeste 0 -- -- 39
2020-03-29 15:00:00 16.6 4 Noroeste 15 Noroeste 0 -- -- 38
2020-03-29 14:00:00 15.7 5 Oeste 14 Norte 0 -- -- 43
2020-03-29 13:00:00 15.2 3 Nordeste 12 Sudoeste 0 -- -- 43
2020-03-29 12:00:00 12.9 5 Sudoeste 10 Sur 0 -- -- 54
2020-03-29 11:00:00 10.1 5 Sudoeste 10 Sudoeste 0 -- -- 66
2020-03-29 10:00:00 7.7 0 Calma 4 Sur 0 -- -- 69
2020-03-29 09:00:00 3.2 0 Calma 3 Sudeste 0 -- -- 86
2020-03-29 08:00:00 0.3 0 Calma 9 Sudoeste 0 -- -- 92
2020-03-29 07:00:00 0.5 0 Calma 0 Calma 0 -- -- 92
2020-03-29 06:00:00 0.8 0 Calma 0 Calma 0 -- -- 91
2020-03-29 05:00:00 1.4 0 Calma 2 Sudoeste 0 -- -- 90
2020-03-29 03:00:00 2.5 0 Calma 2 Sudoeste 0 -- -- 88
2020-03-29 01:00:00 3 0 Calma 3 Sur 0 -- -- 86
2020-03-29 00:00:00 3.6 0 Calma 4 Sudeste 0 -- -- 85
2020-03-28 23:00:00 4.1 0 Calma 7 Sudeste 0 -- -- 82
2020-03-28 22:00:00 4.8 3 Sudeste 6 Sudeste 0 -- -- 79
2020-03-28 21:00:00 6 0 Calma 6 Este 0 -- -- 76
2020-03-28 20:00:00 7.6 0 Calma 14 Sudeste 0 -- -- 67
2020-03-28 19:00:00 9.3 4 Sudeste 19 Este 0 -- -- 59
2020-03-28 18:00:00 10.6 7 Sudeste 22 Sudeste 0 -- -- 53
2020-03-28 17:00:00 10.8 9 Sudeste 21 Sudeste 0 -- -- 53
2020-03-28 16:00:00 10.6 10 Sudeste 25 Sudeste 0 -- -- 54
2020-03-28 15:00:00 10.6 11 Sudeste 22 Sudeste 0 -- -- 47
2020-03-28 14:00:00 10.2 12 Sudeste 27 Sudeste 0 -- -- 47
2020-03-28 13:00:00 9.8 10 Sudeste 26 Sudeste 0 -- -- 43
2020-03-28 12:00:00 9.7 10 Sur 26 Sudeste 0 -- -- 44
2020-03-28 11:00:00 8.1 12 Sudeste 23 Sudeste 0 -- -- 58
2020-03-28 10:00:00 6.3 12 Sudeste 24 Sudeste 0 -- -- 75
2020-03-28 09:00:00 5.4 7 Sudeste 20 Sudeste 0 -- -- 80
2020-03-28 08:00:00 2 10 Sudeste 19 Sudeste 0 -- -- 92
2020-03-28 07:00:00 0.6 8 Sudeste 20 Sur 0 -- -- 94
2020-03-28 06:00:00 1.2 7 Sur 21 Sudeste 0 -- -- 94
2020-03-28 05:00:00 1.1 8 Sudeste 27 Sudeste 0 -- -- 95
2020-03-28 04:00:00 1.3 8 Sudeste 25 Sudeste 0 -- -- 95
2020-03-28 03:00:00 1.7 13 Sudeste 26 Sudeste 0 -- -- 95
2020-03-28 02:00:00 2.2 5 Sudeste 22 Este 0 -- -- 96
2020-03-28 01:00:00 2.1 10 Sudeste 27 Sudeste 0 -- -- 95
2020-03-28 00:00:00 1.7 10 Sudeste 31 Sudeste 0.2 -- -- 95
2020-03-27 23:00:00 1.3 12 Este 25 Sudeste 0 -- -- 95
2020-03-27 22:00:00 1.2 12 Sudeste 29 Sudeste 0.2 -- -- 94
2020-03-27 21:00:00 1.2 13 Sudeste 26 Este 0.2 -- -- 94
2020-03-27 20:00:00 1.3 10 Este 22 Este 0.2 -- -- 94
2020-03-27 19:00:00 1.7 15 Sudeste 41 Sudeste 0.6 -- -- 92
2020-03-27 18:00:00 1.5 16 Sudeste 32 Sudeste 1.2 -- -- 95
2020-03-27 17:00:00 1.1 12 Sudeste 35 Sudeste 2.6 -- -- 96
2020-03-27 16:00:00 0.9 17 Sudeste 36 Sudeste 3.8 -- -- 97
2020-03-27 15:00:00 0.6 12 Sudeste 30 Sudeste 1.6 -- -- 97
2020-03-27 14:00:00 0.6 12 Sudeste 38 Sudeste 1.8 -- -- 96
2020-03-27 13:00:00 1.5 15 Sudeste 41 Sudeste 1.4 -- -- 94
2020-03-27 12:00:00 2.4 17 Sudeste 42 Sudeste 0.2 -- -- 93
2020-03-27 11:00:00 2 14 Sudeste 34 Sudeste 3.4 -- -- 95
2020-03-27 10:00:00 2.2 16 Sudeste 35 Sudeste 6 -- -- 94
2020-03-27 09:00:00 3.5 12 Sudeste 36 Sudeste 0.2 -- -- 88
2020-03-27 08:00:00 4.1 12 Sudeste 34 Sudeste 0 -- -- 85
2020-03-27 07:00:00 4 8 Sur 30 Sur 0 -- -- 84
2020-03-27 06:00:00 4.1 10 Sur 29 Sudeste 0 -- -- 82
2020-03-27 05:00:00 4 15 Sudeste 29 Sudeste 0 -- -- 82
2020-03-27 04:00:00 3.9 13 Sur 41 Sur 0 -- -- 82
2020-03-27 03:00:00 4.1 14 Sudeste 31 Sudeste 0 -- -- 80
2020-03-27 02:00:00 4.9 15 Sudeste 27 Sudeste 0 -- -- 80
2020-03-27 01:00:00 5.8 9 Sudeste 24 Sudeste 0 -- -- 69
2020-03-27 00:00:00 6.5 3 Sudeste 6 Sudeste 0 -- -- 63
2020-03-26 23:00:00 7.5 0 Calma 7 Este 0 -- -- 57
2020-03-26 22:00:00 7.2 3 Este 6 Este 0 -- -- 53
2020-03-26 21:00:00 7.7 0 Calma 6 Este 0 -- -- 52
2020-03-26 20:00:00 9.5 4 Este 10 Este 0 -- -- 44
2020-03-26 19:00:00 11.6 8 Este 21 Nordeste 0 -- -- 35
2020-03-26 18:00:00 12.7 10 Nordeste 25 Nordeste 0 -- -- 31
2020-03-26 17:00:00 13.6 13 Nordeste 27 Nordeste 0 -- -- 29
2020-03-26 16:00:00 14.3 13 Norte 36 Nordeste 0 -- -- 25
2020-03-26 15:00:00 14.3 13 Norte 30 Norte 0 -- -- 26
2020-03-26 14:00:00 13.3 11 Norte 32 Norte 0 -- -- 31
2020-03-26 13:00:00 11.9 12 Norte 30 Norte 0 -- -- 33
2020-03-26 12:00:00 11.2 9 Norte 23 Norte 0 -- -- 35
2020-03-26 11:00:00 10.4 8 Norte 22 Norte 0 -- -- 48
2020-03-26 10:00:00 10 9 Norte 19 Norte 0 -- -- 52
2020-03-26 09:00:00 9.4 5 Norte 18 Norte 0 -- -- 80
2020-03-26 08:00:00 7.1 4 Noroeste 15 Norte 0 -- -- 95
2020-03-26 07:00:00 6.1 6 Noroeste 17 Noroeste 0 -- -- 96
2020-03-26 06:00:00 5.6 6 Noroeste 13 Noroeste 0 -- -- 97
2020-03-26 05:00:00 4 3 Oeste 8 Oeste 0 -- -- 98
2020-03-26 04:00:00 3.1 0 Calma 3 Sur 0 -- -- 96
2020-03-26 03:00:00 3.8 0 Calma 4 Sur 0 -- -- 96
2020-03-26 02:00:00 4.7 3 Sudoeste 10 Sudoeste 0 -- -- 95
2020-03-26 01:00:00 5.4 4 Sudoeste 9 Sudoeste 0 -- -- 93
2020-03-26 00:00:00 6.1 3 Sudeste 22 Nordeste 2.6 -- -- 92
2020-03-25 23:00:00 7.2 3 Sur 13 Sur 0.4 -- -- 84
2020-03-25 22:00:00 7.4 5 Sur 17 Sur 0 -- -- 78
2020-03-25 21:00:00 9.8 0 Calma 8 Noroeste 0 -- -- 62
2020-03-25 20:00:00 10.1 4 Noroeste 14 Norte 0 -- -- 60
2020-03-25 19:00:00 11.8 6 Noroeste 13 Noroeste 0 -- -- 51
2020-03-25 18:00:00 12.1 4 Norte 21 Norte 0 -- -- 46
2020-03-25 17:00:00 13.2 7 Nordeste 24 Nordeste 0 -- -- 43
2020-03-25 16:00:00 13.3 10 Norte 23 Nordeste 0 -- -- 44
2020-03-25 15:00:00 12.5 13 Nordeste 21 Nordeste 0 -- -- 49
2020-03-25 14:00:00 12.5 7 Nordeste 24 Este 0 -- -- 48
2020-03-25 13:00:00 11.8 6 Nordeste 17 Noroeste 0 -- -- 49
2020-03-25 12:00:00 13.3 4 Nordeste 11 Noroeste 0 -- -- 47
2020-03-25 11:00:00 11.9 4 Sudoeste 15 Sudoeste 0 -- -- 52
2020-03-25 10:00:00 9.1 8 Sur 19 Sudeste 0 -- -- 64
2020-03-25 09:00:00 6.9 8 Sudeste 17 Sudeste 0 -- -- 76
2020-03-25 08:00:00 3.4 0 Calma 5 Sudeste 0 -- -- 94
2020-03-25 07:00:00 1.2 2 Sur 5 Sur 0 -- -- 95
2020-03-25 06:00:00 1.6 2 Este 6 Sudeste 0 -- -- 95
2020-03-25 05:00:00 1.8 2 Sur 11 Sur 0 -- -- 95
2020-03-25 04:00:00 2.1 3 Sudeste 8 Sudeste 0 -- -- 93
2020-03-25 03:00:00 3.4 3 Sudeste 21 Sudeste 0 -- -- 90
2020-03-25 02:00:00 4.6 8 Sudeste 19 Sudeste 0 -- -- 88
2020-03-25 01:00:00 4.8 13 Sudeste 24 Sudeste 0 -- -- 88
2020-03-25 00:00:00 4.8 9 Sudeste 28 Sudeste 0 -- -- 88
2020-03-24 23:00:00 5.7 14 Sudeste 35 Sudeste 0 -- -- 85
2020-03-24 22:00:00 5.9 16 Sudeste 38 Este 0 -- -- 84
2020-03-24 21:00:00 6.1 14 Sudeste 34 Sudeste 0 -- -- 87
2020-03-24 20:00:00 6.5 14 Sudeste 33 Sur 0 -- -- 89
2020-03-24 19:00:00 6.4 16 Sudeste 37 Sudeste 0 -- -- 93
2020-03-24 18:00:00 6.6 15 Sudeste 37 Sudeste 0 -- -- 93
2020-03-24 17:00:00 7.4 18 Sudeste 40 Sudeste 0 -- -- 88
2020-03-24 16:00:00 7.8 19 Sudeste 43 Sudeste 0 -- -- 86
2020-03-24 15:00:00 8.5 20 Sudeste 54 Sudeste 0 -- -- 84
2020-03-24 14:00:00 9.3 21 Sudeste 54 Sur 0 -- -- 80
2020-03-24 13:00:00 9.9 27 Sudeste 49 Sudeste 0 -- -- 76
2020-03-24 12:00:00 9.4 25 Sudeste 48 Sudeste 0 -- -- 79
2020-03-24 11:00:00 8.6 23 Sudeste 54 Sudeste 0 -- -- 83
2020-03-24 10:00:00 9 24 Sudeste 51 Sudeste 0 -- -- 79
2020-03-24 09:00:00 7.1 24 Sudeste 45 Sudeste 0 -- -- 87
2020-03-24 08:00:00 6.8 17 Sudeste 40 Sudeste 0 -- -- 87
2020-03-24 07:00:00 5.8 17 Sudeste 49 Sudeste 0 -- -- 85
2020-03-24 06:00:00 6.9 29 Sudeste 58 Sudeste 0 -- -- 82
2020-03-24 05:00:00 7.2 28 Sudeste 54 Sudeste 0 -- -- 81
2020-03-24 04:00:00 7.8 21 Sudeste 42 Sudeste 0 -- -- 87
2020-03-24 03:00:00 7.6 17 Sudeste 40 Sudeste 0 -- -- 88
2020-03-24 02:00:00 7.4 14 Sudeste 29 Sudeste 0 -- -- 92
2020-03-24 01:00:00 7.6 18 Sudeste 37 Sudeste 0 -- -- 89
2020-03-24 00:00:00 7.6 16 Sudeste 34 Sudeste 0 -- -- 89
2020-03-23 23:00:00 8.1 20 Sudeste 40 Sudeste 0 -- -- 85
2020-03-23 22:00:00 8.5 15 Sudeste 41 Sudeste 0 -- -- 86
2020-03-23 21:00:00 8.5 14 Sudeste 33 Sudeste 0 -- -- 89
2020-03-23 20:00:00 8.4 12 Sudeste 27 Sudeste 0.2 -- -- 90
2020-03-23 19:00:00 8.4 17 Sudeste 42 Sudeste 0 -- -- 87
2020-03-23 18:00:00 11.3 16 Sudeste 34 Sudeste 0 -- -- 68
2020-03-23 17:00:00 12 14 Sudeste 36 Sur 0 -- -- 60
2020-03-23 16:00:00 11.3 15 Sur 39 Sudeste 0 -- -- 64
2020-03-23 15:00:00 12.3 16 Sur 39 Sur 0 -- -- 74
2020-03-23 14:00:00 12.8 13 Sur 34 Sudeste 0 -- -- 55
2020-03-23 13:00:00 12.3 16 Sur 32 Sur 0 -- -- 57
2020-03-23 12:00:00 12.1 12 Sur 34 Sur 0 -- -- 57
2020-03-23 11:00:00 10.8 14 Sur 31 Sur 0 -- -- 64
2020-03-23 10:00:00 10 15 Sur 30 Sur 0 -- -- 71
2020-03-23 09:00:00 8.9 12 Sudeste 22 Sudeste 0 -- -- 78
2020-03-23 08:00:00 6 6 Sudeste 12 Sudeste 0 -- -- 90
2020-03-23 07:00:00 5.2 5 Sudeste 13 Sudeste 0 -- -- 93
2020-03-23 06:00:00 5.6 5 Sudeste 10 Sudeste 0 -- -- 94
2020-03-23 05:00:00 5.1 2 Sudeste 9 Sudeste 0 -- -- 94
2020-03-23 04:00:00 5.2 2 Sur 9 Sudeste 0 -- -- 94
2020-03-23 03:00:00 4.7 4 Sudeste 9 Sudeste 0 -- -- 95
2020-03-23 02:00:00 4.8 5 Sudeste 9 Sudeste 0 -- -- 94
2020-03-23 01:00:00 5.7 5 Sur 11 Sur 0 -- -- 94
2020-03-23 00:00:00 5.4 3 Sudeste 6 Este 0 -- -- 95
2020-03-22 23:00:00 5.7 2 Este 5 Nordeste 0 -- -- 95
2020-03-22 22:00:00 6.1 0 Calma 5 Sudeste 0 -- -- 95
2020-03-22 21:00:00 6.3 0 Calma 8 Sur 0.4 -- -- 94
2020-03-22 20:00:00 6.5 3 Sudoeste 8 Oeste 0.2 -- -- 93
2020-03-22 19:00:00 6.9 4 Oeste 10 Oeste 0.2 -- -- 91
2020-03-22 18:00:00 7.2 6 Oeste 18 Sur 0 -- -- 85
2020-03-22 17:00:00 9.7 12 Sudeste 25 Sudeste 0.2 -- -- 72
2020-03-22 16:00:00 10.7 11 Sudeste 26 Sudeste 0 -- -- 64
2020-03-22 15:00:00 11.2 11 Sudeste 26 Sudeste 0 -- -- 65
2020-03-22 14:00:00 10.3 14 Sudeste 27 Este 0 -- -- 69
2020-03-22 13:00:00 9.6 12 Sudeste 26 Sudeste 0 -- -- 72
2020-03-22 12:00:00 8.6 10 Sudeste 22 Sudeste 0 -- -- 80
2020-03-22 11:00:00 7.5 8 Sudeste 18 Sudeste 0 -- -- 82
2020-03-22 10:00:00 6.1 0 Calma 5 Sudeste -- -- -- 93
2020-03-22 09:00:00 5.1 3 Sudeste 5 Sudeste 0 -- -- 96
2020-03-22 08:00:00 4.7 2 Sudoeste 5 Sudoeste 0 -- -- 96
2020-03-22 07:00:00 4.5 2 Sur 4 Sur 0 -- -- 96
2020-03-22 06:00:00 4.5 0 Calma 5 Sudeste 0 -- -- 95
2020-03-22 05:00:00 4.5 0 Calma 6 Este 0 -- -- 95
2020-03-22 04:00:00 4.1 4 Este 6 Este 0.2 -- -- 94
2020-03-22 03:00:00 3.5 0 Calma 8 Sur 0 -- -- 93
2020-03-22 02:00:00 3 3 Sur 6 Sudoeste 0 -- -- 95
2020-03-22 01:00:00 3.4 3 Sudeste 13 Sudoeste 0 -- -- 95
2020-03-22 00:00:00 3.2 5 Sur 13 Sudeste 0 -- -- 96
2020-03-21 23:00:00 3.1 7 Sudeste 19 Sudeste 0 -- -- 95
2020-03-21 22:00:00 3.7 5 Sudeste 14 Sudeste 0 -- -- 92
2020-03-21 21:00:00 3.8 5 Sudeste 12 Sudeste 0 -- -- 90
2020-03-21 20:00:00 4.9 4 Sudeste 17 Sudeste 0 -- -- 88
2020-03-21 19:00:00 6.3 8 Sudeste 18 Sudeste 0 -- -- 82
2020-03-21 18:00:00 6.4 5 Sur 14 Sur 0 -- -- 79
2020-03-21 17:00:00 6.7 5 Sur 11 Sudoeste 0.2 -- -- 73
2020-03-21 16:00:00 6.9 4 Sur 14 Sudoeste 0.2 -- -- 75
2020-03-21 15:00:00 8.3 7 Sudoeste 21 Sudoeste 0 -- -- 65
2020-03-21 14:00:00 8.3 12 Oeste 21 Oeste 0 -- -- 67
2020-03-21 13:00:00 6.9 14 Oeste 26 Oeste 0 -- -- 85
2020-03-21 12:00:00 7.4 5 Sudoeste 17 Noroeste 0 -- -- 78
2020-03-21 11:00:00 6.9 12 Oeste 28 Oeste 0 -- -- 79
2020-03-21 10:00:00 7.3 14 Oeste 27 Oeste 0 -- -- 85
2020-03-21 09:00:00 8.5 9 Sudoeste 18 Sudoeste 0 -- -- 81
2020-03-21 08:00:00 7.5 5 Sur 23 Sur 0 -- -- 86
2020-03-21 07:00:00 7.3 11 Sur 22 Sur 0 -- -- 87
2020-03-21 06:00:00 7 8 Sur 24 Sur 0 -- -- 87
2020-03-21 05:00:00 6.5 6 Sudeste 15 Sur 0 -- -- 88
2020-03-21 04:00:00 6.9 5 Sur 18 Sudeste 0 -- -- 88
2020-03-21 03:00:00 7 5 Sur 20 Sudeste 0 -- -- 88
2020-03-21 02:00:00 7.2 7 Sur 23 Sudeste 0 -- -- 89
2020-03-21 01:00:00 7.4 9 Sur 25 Sur 0 -- -- 88
2020-03-21 00:00:00 7.7 10 Sur 28 Sur 0 -- -- 86
2020-03-20 23:00:00 7.8 12 Sudeste 32 Sudeste 0 -- -- 87
2020-03-20 22:00:00 7.7 14 Sudeste 31 Sudeste 0 -- -- 88
2020-03-20 21:00:00 8.3 15 Sudeste 32 Sudeste 0 -- -- 84
2020-03-20 20:00:00 9.1 21 Sudeste 36 Sudeste 0 -- -- 80
2020-03-20 19:00:00 10.4 16 Sudeste 35 Sudeste 0 -- -- 73
2020-03-20 18:00:00 13.2 14 Sudeste 35 Sudeste 0 -- -- 58
2020-03-20 17:00:00 14.1 15 Sudeste 31 Sudeste 0 -- -- 55
2020-03-20 16:00:00 15 13 Sudeste 34 Sur 0 -- -- 53
2020-03-20 15:00:00 15 14 Sur 35 Sur 0 -- -- 52
2020-03-20 14:00:00 14.1 12 Sur 32 Sur 0 -- -- 54
2020-03-20 13:00:00 13.5 16 Sur 33 Sudeste 0 -- -- 54
2020-03-20 12:00:00 11.4 13 Sur 36 Sur 0 -- -- 62
2020-03-20 11:00:00 11.3 16 Sur 38 Sur 0 -- -- 66
2020-03-20 10:00:00 10.2 13 Sur 35 Sur 0 -- -- 66
2020-03-20 09:00:00 8 12 Sur 32 Sur 0 -- -- 75
2020-03-20 08:00:00 6.2 9 Sudeste 25 Sur 0 -- -- 83
2020-03-20 07:00:00 6.2 9 Sudeste 27 Sudeste 0 -- -- 86
2020-03-20 06:00:00 6.3 12 Sudeste 29 Sudeste 0 -- -- 84
2020-03-20 05:00:00 6.3 10 Sudeste 27 Sudeste 0 -- -- 88
2020-03-20 04:00:00 6.4 13 Sudeste 24 Sudeste 0 -- -- 86
2020-03-20 03:00:00 7.1 10 Sudeste 30 Sudeste 0 -- -- 81
2020-03-20 02:00:00 7.5 10 Sudeste 30 Sur 0 -- -- 79
2020-03-20 01:00:00 7.9 12 Sudeste 33 Sudeste 0 -- -- 78
2020-03-20 00:00:00 8.3 12 Sudeste 36 Sudeste 0 -- -- 78
2020-03-19 23:00:00 9 15 Sudeste 32 Sudeste 0 -- -- 79
2020-03-19 22:00:00 9.3 13 Sur 33 Sudeste 0 -- -- 78
2020-03-19 21:00:00 9.5 11 Sudeste 30 Sudeste 0 -- -- 74
2020-03-19 20:00:00 10 12 Sudeste 32 Sudeste 0 -- -- 70
2020-03-19 19:00:00 10.9 11 Sur 31 Sudeste 0 -- -- 68
2020-03-19 18:00:00 11.9 15 Sudeste 39 Sudeste 0 -- -- 65
2020-03-19 17:00:00 13.5 14 Sur 37 Sur 0 -- -- 60
2020-03-19 16:00:00 13.9 21 Sudeste 40 Sudeste 0 -- -- 57
2020-03-19 15:00:00 14.2 15 Sudeste 36 Sudeste 0 -- -- 57
2020-03-19 14:00:00 14.9 15 Sudeste 36 Sudeste 0 -- -- 53
2020-03-19 13:00:00 14.1 14 Sur 40 Sur 0 -- -- 55
2020-03-19 12:00:00 12.7 17 Sur 39 Sudeste 0 -- -- 58
2020-03-19 11:00:00 11.5 15 Sudeste 38 Sur 0 -- -- 65
2020-03-19 10:00:00 9.5 16 Sudeste 32 Sudeste 0 -- -- 74
2020-03-19 09:00:00 7.6 14 Sudeste 27 Sudeste 0 -- -- 82
2020-03-19 08:00:00 6.3 13 Sudeste 25 Sudeste 0 -- -- 87
2020-03-19 07:00:00 5.9 14 Sudeste 27 Sudeste 0 -- -- 88
2020-03-19 06:00:00 5.8 9 Sudeste 22 Sur 0 -- -- 89
2020-03-19 05:00:00 5.9 9 Sudeste 29 Sudeste 0 -- -- 89
2020-03-19 04:00:00 5.9 17 Sudeste 27 Sudeste 0 -- -- 90
2020-03-19 03:00:00 5.7 12 Sudeste 26 Sudeste 0 -- -- 91
2020-03-19 02:00:00 5.7 7 Sudeste 35 Sudeste 0 -- -- 89
2020-03-19 01:00:00 6.3 18 Sudeste 39 Sudeste 0 -- -- 83
2020-03-19 00:00:00 6.9 20 Sudeste 35 Sudeste 0 -- -- 72
2020-03-18 23:00:00 7.2 12 Sudeste 25 Sudeste 0 -- -- 73
2020-03-18 22:00:00 8 11 Sudeste 26 Sudeste 0 -- -- 79
2020-03-18 21:00:00 8.9 13 Sudeste 24 Este 0 -- -- 76
2020-03-18 20:00:00 10 9 Sudeste 31 Sudeste 0 -- -- 67
2020-03-18 19:00:00 11.2 14 Sudeste 35 Sudeste 0 -- -- 63
2020-03-18 18:00:00 11.9 14 Sudeste 46 Sudeste 0 -- -- 63
2020-03-18 17:00:00 12.5 21 Sudeste 41 Sudeste 0 -- -- 55
2020-03-18 16:00:00 11.4 20 Sudeste 40 Sudeste 0 -- -- 68
2020-03-18 15:00:00 10.9 19 Sudeste 39 Sudeste 0 -- -- 70
2020-03-18 14:00:00 11.4 18 Sudeste 42 Sur 0 -- -- 66
2020-03-18 13:00:00 11.4 18 Sudeste 48 Sudeste 0 -- -- 70
2020-03-18 12:00:00 11.1 15 Sudeste 44 Sudeste 0 -- -- 72
2020-03-18 11:00:00 10.3 18 Sudeste 46 Sur 0 -- -- 75
2020-03-18 10:00:00 9.8 23 Sudeste 49 Sudeste 0 -- -- 79
2020-03-18 09:00:00 8.5 21 Sudeste 50 Sudeste 0 -- -- 87
2020-03-18 08:00:00 7.8 26 Sudeste 48 Sudeste 0 -- -- 88
2020-03-18 07:00:00 8 29 Sudeste 52 Sudeste 0 -- -- 85
2020-03-18 06:00:00 8 31 Sudeste 57 Sudeste 0 -- -- 84
2020-03-18 05:00:00 8.1 27 Sudeste 58 Sur 0 -- -- 84
2020-03-18 04:00:00 8.5 28 Sudeste 53 Sudeste 0 -- -- 83
2020-03-18 03:00:00 8.3 20 Sudeste 44 Sudeste 0 -- -- 86
2020-03-18 02:00:00 8.5 21 Sudeste 44 Sudeste 0 -- -- 86
2020-03-18 01:00:00 8.8 19 Sudeste 41 Sudeste 0 -- -- 86
2020-03-18 00:00:00 9.3 19 Sudeste 40 Sudeste 0 -- -- 85
2020-03-17 23:00:00 9.7 18 Sudeste 43 Sudeste 0 -- -- 87
2020-03-17 22:00:00 10 21 Sudeste 44 Sudeste 0 -- -- 89
2020-03-17 21:00:00 10 21 Sudeste 45 Sudeste 0 -- -- 91
2020-03-17 20:00:00 10.5 16 Sudeste 37 Sudeste 0 -- -- 89
2020-03-17 19:00:00 10.4 16 Sudeste 33 Sudeste 0 -- -- 91
2020-03-17 18:00:00 10.8 13 Sudeste 38 Sudeste 0 -- -- 86
2020-03-17 17:00:00 12.5 17 Sudeste 44 Sudeste 0 -- -- 75
2020-03-17 16:00:00 13.9 20 Sudeste 38 Sudeste 0 -- -- 68
2020-03-17 15:00:00 13.3 18 Sudeste 37 Sudeste 0 -- -- 63
2020-03-17 14:00:00 13.4 20 Sudeste 45 Sudeste 0 -- -- 55
2020-03-17 13:00:00 12.9 13 Sur 45 Sudeste 0 -- -- 55
2020-03-17 12:00:00 11.3 17 Sur 41 Sudeste 0 -- -- 62
2020-03-17 11:00:00 8.9 15 Sur 31 Sudeste 0 -- -- 67
2020-03-17 10:00:00 8 6 Sur 27 Sur 0 -- -- 76
2020-03-17 09:00:00 7 13 Sudeste 27 Sudeste 0 -- -- 84
2020-03-17 08:00:00 3 9 Sudeste 19 Sudeste 0 -- -- 95
2020-03-17 07:00:00 2.5 3 Sur 18 Sudeste 0 -- -- 93
2020-03-17 06:00:00 2.6 8 Sudeste 22 Sudeste 0 -- -- 92
2020-03-17 05:00:00 2.8 10 Sudeste 20 Sur 0 -- -- 91
2020-03-17 04:00:00 2.1 9 Sudeste 17 Sudeste 0 -- -- 89
2020-03-17 03:00:00 0.7 3 Sudeste 6 Sudeste 0 -- -- 89
2020-03-17 02:00:00 1.1 0 Calma 7 Sudeste 0 -- -- 87
2020-03-17 01:00:00 1.6 0 Calma 6 Sudeste 0 -- -- 89
2020-03-17 00:00:00 1.8 0 Calma 14 Sudeste 0 -- -- 92
2020-03-16 23:00:00 2.1 5 Sudeste 17 Sudeste 0 -- -- 92
2020-03-16 22:00:00 2.8 4 Sudeste 12 Sur 0 -- -- 88
2020-03-16 21:00:00 4.3 4 Sur 9 Sur 0 -- -- 75
2020-03-16 20:00:00 5 7 Sur 18 Sudoeste 0 -- -- 80
2020-03-16 19:00:00 5 6 Este 12 Este 0 -- -- 84
2020-03-16 18:00:00 4.6 4 Este 15 Este 0 -- -- 83
2020-03-16 17:00:00 5 7 Sudeste 17 Sudeste 0.4 -- -- 77
2020-03-16 16:00:00 7.5 5 Oeste 18 Oeste 0 -- -- 61
2020-03-16 15:00:00 7.2 12 Oeste 23 Oeste 0 -- -- 59
2020-03-16 14:00:00 7.3 9 Oeste 25 Noroeste 0 -- -- 61
2020-03-16 13:00:00 7.8 12 Noroeste 36 Oeste 0 -- -- 63
2020-03-16 12:00:00 6.2 16 Oeste 31 Oeste 0 -- -- 67
2020-03-16 11:00:00 5.5 16 Sudoeste 32 Oeste 0 -- -- 73
2020-03-16 10:00:00 2.8 15 Oeste 28 Oeste 0 -- -- 90
2020-03-16 09:00:00 1.8 14 Sudoeste 26 Sudoeste 0.6 -- -- 95
2020-03-16 08:00:00 0.9 8 Sudoeste 21 Noroeste 0.8 -- -- 95
2020-03-16 07:00:00 2.1 13 Oeste 38 Noroeste 0.6 -- -- 90
2020-03-16 06:00:00 4.4 12 Noroeste 27 Noroeste 3 -- -- 94
2020-03-16 05:00:00 6.7 10 Noroeste 26 Noroeste 1.6 -- -- 92
2020-03-16 04:00:00 9.5 10 Noroeste 25 Sudoeste 0 -- -- 87
2020-03-16 03:00:00 10.1 9 Sur 19 Sur 0 -- -- 75
2020-03-16 02:00:00 9.5 3 Sudeste 8 Sudeste 0 -- -- 78
2020-03-16 01:00:00 9.9 2 Sudeste 4 Sudeste 0 -- -- 74
2020-03-16 00:00:00 10.6 3 Noroeste 22 Noroeste 0 -- -- 71
2020-03-15 23:00:00 11.6 7 Noroeste 24 Noroeste 0 -- -- 66
2020-03-15 22:00:00 12.5 8 Oeste 19 Oeste 0 -- -- 71
2020-03-15 21:00:00 12.8 8 Oeste 17 Oeste 0 -- -- 63
2020-03-15 20:00:00 14 10 Oeste 22 Oeste 0 -- -- 59
2020-03-15 19:00:00 16 14 Oeste 30 Oeste 0 -- -- 53
2020-03-15 18:00:00 18.1 17 Oeste 33 Oeste 0 -- -- 47
2020-03-15 17:00:00 18.9 14 Oeste 28 Oeste 0 -- -- 43
2020-03-15 16:00:00 20.3 13 Oeste 24 Oeste 0 -- -- 37
2020-03-15 15:00:00 20.5 13 Oeste 23 Oeste 0 -- -- 45
2020-03-15 14:00:00 19.6 10 Oeste 21 Oeste 0 -- -- 47
2020-03-15 13:00:00 19.1 10 Oeste 22 Oeste 0 -- -- 52
2020-03-15 12:00:00 19 12 Oeste 26 Oeste 0 -- -- 53
2020-03-15 11:00:00 17.2 12 Sudoeste 26 Oeste 0 -- -- 61
2020-03-15 10:00:00 14.8 7 Sudoeste 18 Sudoeste 0 -- -- 70
2020-03-15 09:00:00 10.3 3 Sudeste 8 Sudeste 0 -- -- 82
2020-03-15 08:00:00 8 3 Sudeste 7 Sudeste 0 -- -- 89
2020-03-15 07:00:00 7.7 0 Calma 5 Sudeste 0 -- -- 88
2020-03-15 06:00:00 8.1 2 Sudeste 5 Sudeste 0 -- -- 86
2020-03-15 05:00:00 8.2 0 Calma 4 Sudeste 0 -- -- 85
2020-03-15 04:00:00 8.5 0 Calma 4 Sur 0 -- -- 84
2020-03-15 03:00:00 8.5 0 Calma 7 Sudeste 0 -- -- 85
2020-03-15 02:00:00 9.3 0 Calma 3 Sudeste 0 -- -- 83
2020-03-15 01:00:00 10.4 0 Calma 3 Sudeste 0 -- -- 78
2020-03-15 00:00:00 11.8 0 Calma 4 Sudeste 0 -- -- 75
2020-03-14 23:00:00 12.5 0 Calma 5 Sudeste 0 -- -- 72
2020-03-14 22:00:00 13 0 Calma 6 Sudeste 0 -- -- 69
2020-03-14 21:00:00 14.2 3 Sudeste 6 Sudeste 0 -- -- 64
2020-03-14 20:00:00 15.7 2 Sudeste 10 Este 0 -- -- 59
2020-03-14 19:00:00 17.9 5 Sudeste 15 Este 0 -- -- 52
2020-03-14 18:00:00 19.8 7 Sudeste 14 Sudeste 0 -- -- 47
2020-03-14 17:00:00 20.2 3 Este 11 Sur 0 -- -- 44
2020-03-14 16:00:00 19.5 6 Nordeste 14 Nordeste 0 -- -- 47
2020-03-14 15:00:00 19.3 4 Nordeste 14 Nordeste 0 -- -- 50
2020-03-14 14:00:00 18.9 3 Nordeste 16 Este 0 -- -- 51
2020-03-14 13:00:00 20.6 4 Norte 10 Noroeste 0 -- -- 48
2020-03-14 12:00:00 17.3 5 Nordeste 21 Norte 0 -- -- 59
2020-03-14 11:00:00 17.1 7 Norte 13 Noroeste 0 -- -- 62
2020-03-14 10:00:00 15.9 4 Noroeste 13 Noroeste 0 -- -- 69
2020-03-14 09:00:00 11.8 0 Calma 4 Este 0 -- -- 79
2020-03-14 08:00:00 6.9 0 Calma 3 Sudeste 0 -- -- 94
2020-03-14 07:00:00 6.9 0 Calma 4 Sudeste 0 -- -- 93
2020-03-14 06:00:00 7.5 0 Calma 5 Sur 0 -- -- 92
2020-03-14 05:00:00 7.5 4 Sudeste 7 Este 0 -- -- 88
2020-03-14 04:00:00 8.4 0 Calma 4 Sudeste 0 -- -- 84
2020-03-14 03:00:00 8.9 0 Calma 4 Sudeste 0 -- -- 78
2020-03-14 02:00:00 9.7 0 Calma 5 Sudeste 0 -- -- 72
2020-03-14 01:00:00 10.3 2 Sudeste 9 Sudeste 0 -- -- 68
2020-03-14 00:00:00 11.7 4 Sur 9 Sudoeste 0 -- -- 61
2020-03-13 23:00:00 12.6 3 Sudoeste 13 Oeste 0 -- -- 59
2020-03-13 22:00:00 14.2 4 Oeste 9 Sudoeste 0 -- -- 58
2020-03-13 21:00:00 14.8 3 Noroeste 10 Noroeste 0 -- -- 62
2020-03-13 20:00:00 16.6 4 Norte 12 Nordeste 0 -- -- 56
2020-03-13 19:00:00 19.1 6 Nordeste 14 Nordeste 0 -- -- 49
2020-03-13 18:00:00 21.5 6 Norte 17 Noroeste 0 -- -- 35
2020-03-13 17:00:00 22.5 9 Oeste 18 Oeste 0 -- -- 26
2020-03-13 16:00:00 22.9 7 Norte 17 Norte 0 -- -- 26
2020-03-13 15:00:00 24.6 5 Oeste 18 Sudoeste 0 -- -- 25
2020-03-13 14:00:00 24.1 6 Oeste 18 Oeste 0 -- -- 26
2020-03-13 13:00:00 22 3 Nordeste 12 Sudoeste 0 -- -- 32
2020-03-13 12:00:00 21.5 6 Sur 13 Sudoeste 0 -- -- 35
2020-03-13 11:00:00 20.6 3 Oeste 10 Sudoeste 0 -- -- 40
2020-03-13 10:00:00 16.3 4 Oeste 7 Oeste 0 -- -- 54
2020-03-13 09:00:00 12 0 Calma 6 Sudoeste 0 -- -- 73
2020-03-13 08:00:00 10 3 Sudeste 7 Sudeste 0 -- -- 80
2020-03-13 07:00:00 9.7 3 Sudeste 6 Sudeste 0 -- -- 80
2020-03-13 06:00:00 10.2 2 Sudeste 9 Sudoeste 0 -- -- 77
2020-03-13 05:00:00 10.4 0 Calma 6 Sudoeste 0 -- -- 76
2020-03-13 04:00:00 10.2 3 Sur 6 Sur 0 -- -- 72
2020-03-13 03:00:00 10 2 Sur 6 Sudeste 0 -- -- 69
2020-03-13 02:00:00 10.6 2 Sudeste 5 Sudeste 0 -- -- 68
2020-03-13 01:00:00 10.9 2 Sudeste 4 Sudeste 0 -- -- 67
2020-03-13 00:00:00 12 3 Sudeste 4 Sudeste 0 -- -- 64
2020-03-12 23:00:00 13.8 0 Calma 4 Sudeste 0 -- -- 58
2020-03-12 22:00:00 15.7 0 Calma 5 Oeste 0 -- -- 53
2020-03-12 21:00:00 18.6 2 Oeste 9 Noroeste 0 -- -- 43
2020-03-12 20:00:00 20.2 3 Noroeste 9 Norte 0 -- -- 38
2020-03-12 19:00:00 22.4 2 Norte 13 Norte 0 -- -- 36
2020-03-12 18:00:00 24.6 7 Norte 16 Norte 0 -- -- 31
2020-03-12 17:00:00 25.4 6 Norte 19 Oeste 0 -- -- 28
2020-03-12 16:00:00 26.3 8 Sur 21 Sur 0 -- -- 23
2020-03-12 15:00:00 28.2 8 Oeste 21 Oeste 0 -- -- 21
2020-03-12 14:00:00 27.2 9 Sudoeste 24 Oeste 0 -- -- 21
2020-03-12 13:00:00 27 5 Sudoeste 14 Oeste 0 -- -- 24
2020-03-12 12:00:00 27.1 6 Oeste 12 Oeste 0 -- -- 26
2020-03-12 11:00:00 25 3 Sur 6 Este 0 -- -- 33
2020-03-12 10:00:00 20.4 0 Calma 4 Sudeste 0 -- -- 42
2020-03-12 09:00:00 15.5 0 Calma 2 Sudeste 0 -- -- 50
2020-03-12 08:00:00 8.8 0 Calma 3 Sudoeste 0 -- -- 70
2020-03-12 07:00:00 8 0 Calma 0 Calma 0 -- -- 72
2020-03-12 06:00:00 8.4 0 Calma 5 Sur 0 -- -- 71
2020-03-12 05:00:00 8.6 0 Calma 3 Sudeste 0 -- -- 71
2020-03-12 04:00:00 9.8 0 Calma 5 Sudeste 0 -- -- 67
2020-03-12 03:00:00 9.8 2 Sudeste 6 Sudeste 0 -- -- 67
2020-03-12 02:00:00 9.9 3 Sudeste 5 Sudeste 0 -- -- 67
2020-03-12 01:00:00 12.5 2 Sur 6 Oeste 0 -- -- 57
2020-03-12 00:00:00 12.7 0 Calma 9 Sur 0 -- -- 56
2020-03-11 23:00:00 13.5 2 Sudoeste 7 Sur 0 -- -- 54
2020-03-11 22:00:00 14.8 2 Sudoeste 8 Sur 0 -- -- 50
2020-03-11 21:00:00 16 0 Calma 3 Sur 0 -- -- 51
2020-03-11 20:00:00 17.9 0 Calma 7 Nordeste 0 -- -- 44
2020-03-11 19:00:00 21.4 5 Nordeste 10 Nordeste 0 -- -- 37
2020-03-11 18:00:00 24.4 4 Nordeste 10 Noroeste 0 -- -- 27
2020-03-11 17:00:00 25.9 5 Norte 17 Nordeste 0 -- -- 25
2020-03-11 16:00:00 26.1 6 Norte 16 Nordeste 0 -- -- 25
2020-03-11 15:00:00 27.2 6 Norte 16 Nordeste 0 -- -- 26
2020-03-11 14:00:00 26.9 2 Noroeste 10 Norte 0 -- -- 29
2020-03-11 13:00:00 26.1 4 Sudoeste 8 Oeste 0 -- -- 31
2020-03-11 12:00:00 23.8 3 Este 7 Oeste 0 -- -- 36
2020-03-11 11:00:00 22.9 0 Calma 4 Sur 0 -- -- 38
2020-03-11 10:00:00 18.5 0 Calma 3 Sur 0 -- -- 48
2020-03-11 09:00:00 13.1 2 Sudeste 4 Sudeste 0 -- -- 58
2020-03-11 08:00:00 5.3 0 Calma 3 Sudoeste 0 -- -- 77
2020-03-11 07:00:00 5 0 Calma 2 Sudeste 0 -- -- 80
2020-03-11 06:00:00 5.4 0 Calma 2 Sudeste 0 -- -- 80
2020-03-11 05:00:00 5.6 0 Calma 4 Sudeste 0 -- -- 79
2020-03-11 04:00:00 5.8 0 Calma 5 Sudoeste 0 -- -- 78
2020-03-11 03:00:00 7.4 0 Calma 6 Sudeste 0 -- -- 73
2020-03-11 02:00:00 6.8 2 Sudeste 10 Oeste 0 -- -- 75
2020-03-11 01:00:00 7.8 0 Calma 3 Sudeste 0 -- -- 73
2020-03-11 00:00:00 8.2 0 Calma 4 Sudeste 0 -- -- 71
2020-03-10 23:00:00 9.8 0 Calma 3 Sudeste 0 -- -- 67
2020-03-10 22:00:00 11 0 Calma 4 Sudeste 0 -- -- 62
2020-03-10 21:00:00 12.5 3 Sudeste 10 Oeste 0 -- -- 57
2020-03-10 20:00:00 15.7 2 Oeste 8 Noroeste 0 -- -- 46
2020-03-10 19:00:00 18.2 4 Noroeste 13 Norte 0 -- -- 40
2020-03-10 18:00:00 20 5 Noroeste 17 Norte 0 -- -- 35
2020-03-10 17:00:00 20.6 6 Norte 20 Norte 0 -- -- 33
2020-03-10 16:00:00 20.9 6 Norte 20 Nordeste 0 -- -- 33
2020-03-10 15:00:00 20.7 10 Norte 18 Norte 0 -- -- 34
2020-03-10 14:00:00 19.7 9 Norte 23 Norte 0 -- -- 35
2020-03-10 13:00:00 17.8 3 Noroeste 9 Noroeste 0 -- -- 37
2020-03-10 12:00:00 16.5 6 Sudoeste 14 Sudoeste 0 -- -- 39
2020-03-10 11:00:00 15.1 3 Sudoeste 10 Sudoeste 0 -- -- 41
2020-03-10 10:00:00 12.3 3 Sudoeste 5 Sudoeste 0 -- -- 47
2020-03-10 09:00:00 9.5 0 Calma 3 Sudeste 0 -- -- 55
2020-03-10 08:00:00 3 0 Calma 4 Sudeste 0 -- -- 75
2020-03-10 07:00:00 3.7 0 Calma 10 Sudoeste 0 -- -- 71
2020-03-10 06:00:00 5.3 3 Sudoeste 7 Sudoeste 0 -- -- 65
2020-03-10 05:00:00 5.8 3 Oeste 14 Nordeste 0 -- -- 63
2020-03-10 04:00:00 7.6 9 Nordeste 20 Nordeste 0 -- -- 56
2020-03-10 03:00:00 7.4 8 Norte 15 Nordeste 0 -- -- 57
2020-03-10 02:00:00 7.2 5 Nordeste 11 Este 0 -- -- 58
2020-03-10 01:00:00 8.6 6 Nordeste 13 Nordeste 0 -- -- 55
2020-03-10 00:00:00 6.5 3 Norte 9 Norte 0 -- -- 57
2020-03-09 23:00:00 7.4 2 Norte 5 Sur 0 -- -- 55
2020-03-09 22:00:00 8.7 0 Calma 5 Nordeste 0 -- -- 50
2020-03-09 21:00:00 9.7 2 Norte 10 Norte 0 -- -- 46
2020-03-09 20:00:00 11.2 5 Norte 17 Norte 0 -- -- 41
2020-03-09 19:00:00 13.3 8 Norte 21 Norte 0 -- -- 36
2020-03-09 18:00:00 14.5 11 Norte 30 Norte 0 -- -- 34
2020-03-09 17:00:00 15.4 12 Norte 31 Norte 0 -- -- 35
2020-03-09 16:00:00 16 9 Norte 31 Norte 0 -- -- 33
2020-03-09 15:00:00 15.9 12 Noroeste 30 Noroeste 0 -- -- 32
2020-03-09 14:00:00 15.5 9 Norte 24 Norte 0 -- -- 35
2020-03-09 13:00:00 13.9 12 Norte 28 Norte 0 -- -- 38
2020-03-09 12:00:00 13 10 Norte 25 Norte 0 -- -- 45
2020-03-09 11:00:00 11.9 12 Norte 24 Nordeste 0 -- -- 50
2020-03-09 10:00:00 10.3 7 Norte 17 Noroeste 0 -- -- 60
2020-03-09 09:00:00 5.8 0 Calma 2 Sur 0 -- -- 73
2020-03-09 08:00:00 0.4 2 Sudeste 5 Este 0 -- -- 88
2020-03-09 07:00:00 0.6 0 Calma 6 Sudeste 0 -- -- 89
2020-03-09 06:00:00 1.2 2 Sudeste 6 Sudeste 0 -- -- 85
2020-03-09 05:00:00 2.6 0 Calma 3 Sudoeste 0 -- -- 83
2020-03-09 04:00:00 3.5 0 Calma 5 Este 0 -- -- 84
2020-03-09 03:00:00 4.6 0 Calma 3 Noroeste 0 -- -- 77
2020-03-09 02:00:00 5 0 Calma 2 Este 0 -- -- 73
2020-03-09 01:00:00 6.6 3 Norte 6 Nordeste 0 -- -- 66
2020-03-09 00:00:00 8.1 0 Calma 5 Noroeste 0 -- -- 60
2020-03-08 23:00:00 8.9 2 Norte 6 Norte 0 -- -- 56
2020-03-08 22:00:00 11.2 2 Norte 13 Norte 0 -- -- 48
2020-03-08 21:00:00 12.1 3 Noroeste 12 Oeste 0 -- -- 46
2020-03-08 20:00:00 12.8 4 Oeste 10 Oeste 0 -- -- 42
2020-03-08 19:00:00 14.2 6 Noroeste 18 Noroeste 0 -- -- 35
2020-03-08 18:00:00 15.8 6 Norte 21 Noroeste 0 -- -- 33
2020-03-08 17:00:00 17 9 Noroeste 26 Oeste 0 -- -- 27
2020-03-08 16:00:00 17.5 10 Noroeste 32 Noroeste 0 -- -- 27
2020-03-08 15:00:00 17.9 9 Noroeste 28 Noroeste 0 -- -- 30
2020-03-08 14:00:00 17.3 9 Noroeste 28 Noroeste 0 -- -- 35
2020-03-08 13:00:00 16.4 6 Noroeste 23 Noroeste 0 -- -- 39
2020-03-08 12:00:00 15.2 8 Noroeste 21 Noroeste 0 -- -- 42
2020-03-08 11:00:00 13.5 6 Noroeste 13 Noroeste 0 -- -- 51
2020-03-08 10:00:00 9.7 2 Sudoeste 5 Sur 0 -- -- 60
2020-03-08 09:00:00 4.5 0 Calma 3 Sudeste 0 -- -- 73
2020-03-08 08:00:00 -1.6 0 Calma 3 Sudeste 0 -- -- 91
2020-03-08 07:00:00 -1.7 0 Calma 4 Sudeste 0 -- -- 88
2020-03-08 06:00:00 -0.4 0 Calma 2 Nordeste 0 -- -- 88
2020-03-08 05:00:00 -0.1 0 Calma 5 Sudeste 0 -- -- 89
2020-03-08 04:00:00 0.5 2 Sur 5 Sudoeste 0 -- -- 84
2020-03-08 03:00:00 1.5 0 Calma 2 Sudoeste 0 -- -- 82
2020-03-08 02:00:00 1.7 2 Sudeste 8 Sudeste 0 -- -- 82
2020-03-08 01:00:00 2 0 Calma 5 Sudeste 0 -- -- 82
2020-03-08 00:00:00 4.1 0 Calma 5 Sudoeste 0 -- -- 75
2020-03-07 23:00:00 5.4 0 Calma 4 Norte 0 -- -- 71
2020-03-07 22:00:00 7 2 Norte 7 Norte 0 -- -- 65
2020-03-07 21:00:00 7.2 0 Calma 13 Norte 0 -- -- 64
2020-03-07 20:00:00 8.7 4 Norte 16 Nordeste 0 -- -- 59
2020-03-07 19:00:00 10.4 7 Norte 27 Norte 0 -- -- 53
2020-03-07 18:00:00 11.7 10 Norte 32 Norte 0 -- -- 48
2020-03-07 17:00:00 12.2 16 Norte 33 Norte 0 -- -- 46
2020-03-07 16:00:00 12.7 13 Norte 33 Nordeste 0 -- -- 44
2020-03-07 15:00:00 12.2 11 Norte 28 Nordeste 0 -- -- 46
2020-03-07 14:00:00 10.8 14 Norte 30 Nordeste 0 -- -- 47
2020-03-07 13:00:00 10.6 9 Norte 22 Norte 0 -- -- 46
2020-03-07 12:00:00 10 9 Norte 23 Norte 0 -- -- 45
2020-03-07 11:00:00 8.8 7 Norte 14 Norte 0 -- -- 46
2020-03-07 10:00:00 6.9 6 Norte 15 Norte 0 -- -- 52
2020-03-07 09:00:00 3.4 0 Calma 6 Sudeste 0 -- -- 69
2020-03-07 08:00:00 -0.2 0 Calma 2 Oeste 0 -- -- 79
2020-03-07 07:00:00 0.2 0 Calma 9 Noroeste 0 -- -- 76
2020-03-07 06:00:00 0.2 3 Norte 8 Noroeste 0 -- -- 75
2020-03-07 05:00:00 0.6 2 Noroeste 8 Norte 0 -- -- 73
2020-03-07 04:00:00 1.7 0 Calma 7 Oeste 0 -- -- 68
2020-03-07 03:00:00 2.2 4 Noroeste 12 Nordeste 0 -- -- 66
2020-03-07 02:00:00 2.3 4 Norte 12 Norte 0 -- -- 65
2020-03-07 01:00:00 2.9 4 Norte 13 Norte 0 -- -- 65
2020-03-07 00:00:00 2.9 0 Calma 9 Norte 0 -- -- 58
2020-03-06 23:00:00 4.1 0 Calma 14 Nordeste 0 -- -- 53
2020-03-06 22:00:00 5.9 9 Norte 24 Nordeste 0 -- -- 46
2020-03-06 21:00:00 6.1 6 Norte 21 Norte 0 -- -- 52
2020-03-06 20:00:00 6.8 8 Norte 26 Norte 0 -- -- 50
2020-03-06 19:00:00 8.2 13 Norte 41 Norte 0 -- -- 44
2020-03-06 18:00:00 9.4 18 Norte 42 Norte 0 -- -- 41
2020-03-06 17:00:00 10.1 20 Norte 44 Norte 0 -- -- 40
2020-03-06 16:00:00 9.7 19 Norte 46 Norte 0 -- -- 41
2020-03-06 15:00:00 9 19 Norte 46 Noroeste 0 -- -- 43
2020-03-06 14:00:00 9.4 19 Norte 45 Noroeste 0 -- -- 43
2020-03-06 13:00:00 9.8 14 Norte 44 Noroeste 0 -- -- 52
2020-03-06 12:00:00 8.1 17 Noroeste 44 Noroeste 0 -- -- 65
2020-03-06 11:00:00 7.4 17 Noroeste 42 Noroeste 0 -- -- 73
2020-03-06 10:00:00 4.9 17 Noroeste 45 Noroeste 0 -- -- 92
2020-03-06 09:00:00 4 16 Noroeste 37 Noroeste 0 -- -- 92
2020-03-06 08:00:00 3.4 15 Noroeste 36 Oeste 0 -- -- 93
2020-03-06 07:00:00 3 13 Noroeste 32 Norte 0 -- -- 92
2020-03-06 06:00:00 2.9 12 Noroeste 30 Oeste 0 -- -- 91
2020-03-06 05:00:00 3.5 10 Noroeste 32 Noroeste 0 -- -- 91
2020-03-06 04:00:00 4.2 13 Noroeste 34 Noroeste 0 -- -- 88
2020-03-06 03:00:00 5 15 Noroeste 36 Noroeste 0 -- -- 87
2020-03-06 02:00:00 5.6 13 Noroeste 36 Noroeste 0 -- -- 88
2020-03-06 01:00:00 6.5 18 Noroeste 43 Noroeste 0 -- -- 84
2020-03-06 00:00:00 7.1 17 Noroeste 35 Noroeste 0 -- -- 81
2020-03-05 23:00:00 7.7 15 Noroeste 33 Noroeste 0 -- -- 76
2020-03-05 22:00:00 8 15 Noroeste 35 Noroeste 0 -- -- 74
2020-03-05 21:00:00 8.8 16 Oeste 35 Oeste 0 -- -- 71
2020-03-05 20:00:00 9.6 15 Noroeste 36 Noroeste 0 -- -- 67
2020-03-05 19:00:00 10.2 14 Noroeste 44 Noroeste 0 -- -- 66
2020-03-05 18:00:00 11.5 19 Noroeste 46 Noroeste 0 -- -- 62
2020-03-05 17:00:00 12.5 20 Noroeste 50 Noroeste 0 -- -- 57
2020-03-05 16:00:00 12.5 22 Noroeste 51 Oeste 0 -- -- 64
2020-03-05 15:00:00 10.8 23 Noroeste 44 Noroeste 0 -- -- 82
2020-03-05 14:00:00 11.1 21 Oeste 49 Noroeste 0 -- -- 79
2020-03-05 13:00:00 12 22 Oeste 48 Noroeste 0 -- -- 71
2020-03-05 12:00:00 11.7 23 Oeste 53 Oeste 0 -- -- 71
2020-03-05 11:00:00 12 26 Oeste 47 Oeste 0 -- -- 70
2020-03-05 10:00:00 10 18 Oeste 37 Oeste 0 -- -- 85
2020-03-05 09:00:00 9.3 15 Oeste 31 Oeste 0 -- -- 86
2020-03-05 08:00:00 8.4 12 Oeste 26 Oeste 0 -- -- 89
2020-03-05 07:00:00 8.5 12 Oeste 28 Oeste 0 -- -- 87
2020-03-05 06:00:00 8.7 15 Oeste 27 Oeste 0 -- -- 85
2020-03-05 05:00:00 8.5 14 Oeste 27 Oeste 0 -- -- 85
2020-03-05 04:00:00 9.1 10 Oeste 24 Oeste 0 -- -- 82
2020-03-05 03:00:00 9.4 9 Oeste 19 Oeste 0 -- -- 78
2020-03-05 02:00:00 9.4 10 Oeste 21 Oeste 0 -- -- 77
2020-03-05 01:00:00 9.3 12 Oeste 22 Oeste 0 -- -- 79
2020-03-05 00:00:00 9 9 Oeste 17 Noroeste 0 -- -- 78